createdAt,value
2023-03-06T00:00:49.199Z,95590.75
2023-03-06T00:03:15.502Z,95586.00
2023-03-06T00:05:41.829Z,95587.91
2023-03-06T00:08:08.141Z,95583.59
2023-03-06T00:10:34.429Z,95580.88
2023-03-06T00:13:00.752Z,95584.44
2023-03-06T00:15:28.240Z,95578.88
2023-03-06T00:17:54.645Z,95580.47
2023-03-06T00:20:20.957Z,95591.84
2023-03-06T00:22:47.254Z,95587.50
2023-03-06T00:25:13.545Z,95587.16
2023-03-06T00:27:40.784Z,95585.19
2023-03-06T00:30:07.343Z,95589.19
2023-03-06T00:32:33.712Z,95592.66
2023-03-06T00:35:00.068Z,95589.16
2023-03-06T00:37:26.400Z,95584.47
2023-03-06T00:39:52.695Z,95578.88
2023-03-06T00:42:19.016Z,95565.69
2023-03-06T00:44:45.307Z,95575.88
2023-03-06T00:47:11.585Z,95572.34
2023-03-06T00:49:37.910Z,95571.91
2023-03-06T00:52:04.216Z,95570.78
2023-03-06T00:54:30.510Z,95574.28
2023-03-06T00:56:56.865Z,95565.66
2023-03-06T00:59:23.156Z,95565.28
2023-03-06T01:01:49.470Z,95571.22
2023-03-06T01:04:15.814Z,95559.81
2023-03-06T01:06:42.111Z,95557.47
2023-03-06T01:09:08.410Z,95549.59
2023-03-06T01:11:34.718Z,95546.03
2023-03-06T01:14:01.006Z,95542.09
2023-03-06T01:16:27.300Z,95537.03
2023-03-06T01:18:53.706Z,95539.78
2023-03-06T01:21:19.996Z,95541.03
2023-03-06T01:23:46.284Z,95538.25
2023-03-06T01:26:12.609Z,95527.31
2023-03-06T01:28:38.884Z,95531.25
2023-03-06T01:31:05.170Z,95528.56
2023-03-06T01:33:31.482Z,95522.19
2023-03-06T01:35:57.802Z,95526.59
2023-03-06T01:38:24.112Z,95522.66
2023-03-06T01:40:50.445Z,95520.25
2023-03-06T01:43:16.736Z,95514.75
2023-03-06T01:45:43.149Z,95506.81
2023-03-06T01:48:09.474Z,95508.81
2023-03-06T01:50:35.793Z,95504.19
2023-03-06T01:53:02.099Z,95504.56
2023-03-06T01:55:28.410Z,95506.09
2023-03-06T01:57:54.695Z,95506.53
2023-03-06T02:00:21.003Z,95499.84
2023-03-06T02:02:47.362Z,95500.19
2023-03-06T02:05:13.673Z,95500.63
2023-03-06T02:07:39.965Z,95491.63
2023-03-06T02:10:06.270Z,95491.94
2023-03-06T02:12:32.551Z,95488.03
2023-03-06T02:14:58.842Z,95486.00
2023-03-06T02:17:25.144Z,95476.22
2023-03-06T02:19:51.438Z,95480.22
2023-03-06T02:22:17.741Z,95471.22
2023-03-06T02:24:44.084Z,95472.00
2023-03-06T02:27:10.390Z,95469.63
2023-03-06T02:29:42.810Z,95466.50
2023-03-06T02:32:09.162Z,95476.69
2023-03-06T02:34:35.469Z,95466.50
2023-03-06T02:37:01.751Z,95468.50
2023-03-06T02:39:28.062Z,95468.84
2023-03-06T02:41:54.365Z,95462.88
2023-03-06T02:44:20.661Z,95469.13
2023-03-06T02:46:46.975Z,95456.13
2023-03-06T02:49:13.261Z,95467.22
2023-03-06T02:51:39.555Z,95454.56
2023-03-06T02:54:05.895Z,95460.13
2023-03-06T02:56:32.194Z,95456.22
2023-03-06T02:58:58.491Z,95444.84
2023-03-06T03:01:24.836Z,95449.94
2023-03-06T03:03:51.198Z,95452.72
2023-03-06T03:06:17.499Z,95447.22
2023-03-06T03:08:43.833Z,95448.00
2023-03-06T03:11:10.121Z,95449.56
2023-03-06T03:13:36.419Z,95450.34
2023-03-06T03:16:02.790Z,95446.97
2023-03-06T03:18:29.096Z,95455.94
2023-03-06T03:20:55.399Z,95449.69
2023-03-06T03:23:21.712Z,95446.88
2023-03-06T03:25:48.000Z,95435.84
2023-03-06T03:28:14.289Z,95441.81
2023-03-06T03:30:40.596Z,95442.22
2023-03-06T03:33:06.888Z,95441.84
2023-03-06T03:35:33.223Z,95438.31
2023-03-06T03:37:59.551Z,95437.03
2023-03-06T03:40:25.854Z,95437.84
2023-03-06T03:42:52.164Z,95434.59
2023-03-06T03:45:18.490Z,95436.25
2023-03-06T03:47:44.780Z,95436.59
2023-03-06T03:50:11.056Z,95438.69
2023-03-06T03:52:37.372Z,95434.63
2023-03-06T03:55:03.662Z,95428.69
2023-03-06T03:57:29.956Z,95422.91
2023-03-06T03:59:56.272Z,95428.47
2023-03-06T04:02:22.642Z,95430.81
2023-03-06T04:04:49.017Z,95430.13
2023-03-06T04:07:15.350Z,95427.69
2023-03-06T04:09:41.644Z,95422.97
2023-03-06T04:12:07.940Z,95425.72
2023-03-06T04:14:34.314Z,95428.38
2023-03-06T04:17:00.604Z,95421.75
2023-03-06T04:19:26.907Z,95419.06
2023-03-06T04:21:53.218Z,95412.66
2023-03-06T04:24:19.520Z,95418.97
2023-03-06T04:26:45.826Z,95416.94
2023-03-06T04:29:12.157Z,95416.31
2023-03-06T04:31:38.516Z,95415.50
2023-03-06T04:34:04.845Z,95410.34
2023-03-06T04:36:31.152Z,95407.19
2023-03-06T04:38:57.579Z,95402.22
2023-03-06T04:41:23.927Z,95400.28
2023-03-06T04:43:50.439Z,95410.81
2023-03-06T04:46:16.731Z,95409.78
2023-03-06T04:48:43.014Z,95404.84
2023-03-06T04:51:09.325Z,95407.88
2023-03-06T04:53:35.607Z,95408.66
2023-03-06T04:56:01.900Z,95415.50
2023-03-06T04:58:28.204Z,95413.50
2023-03-06T05:00:54.602Z,95419.06
2023-03-06T05:03:20.908Z,95410.88
2023-03-06T05:05:47.216Z,95415.44
2023-03-06T05:08:13.512Z,95414.25
2023-03-06T05:10:39.807Z,95421.06
2023-03-06T05:13:06.140Z,95420.25
2023-03-06T05:15:32.439Z,95407.25
2023-03-06T05:17:58.731Z,95411.19
2023-03-06T05:20:25.068Z,95415.47
2023-03-06T05:22:51.360Z,95422.03
2023-03-06T05:25:17.646Z,95414.97
2023-03-06T05:27:43.944Z,95415.06
2023-03-06T05:30:10.239Z,95415.16
2023-03-06T05:32:36.613Z,95400.16
2023-03-06T05:35:02.943Z,95406.44
2023-03-06T05:37:30.687Z,95402.34
2023-03-06T05:39:57.162Z,95401.53
2023-03-06T05:42:23.469Z,95407.41
2023-03-06T05:44:49.773Z,95406.31
2023-03-06T05:47:16.074Z,95406.69
2023-03-06T05:49:42.386Z,95403.81
2023-03-06T05:52:08.680Z,95415.41
2023-03-06T05:54:34.989Z,95417.97
2023-03-06T05:57:01.313Z,95414.75
2023-03-06T05:59:27.611Z,95408.06
2023-03-06T06:01:53.890Z,95406.28
2023-03-06T06:04:20.203Z,95406.69
2023-03-06T06:06:46.485Z,95415.84
2023-03-06T06:09:13.950Z,95420.59
2023-03-06T06:11:40.344Z,95422.53
2023-03-06T06:14:06.637Z,95417.13
2023-03-06T06:16:32.926Z,95418.19
2023-03-06T06:18:59.254Z,95417.81
2023-03-06T06:21:25.571Z,95416.59
2023-03-06T06:23:51.862Z,95411.91
2023-03-06T06:26:18.209Z,95416.47
2023-03-06T06:28:44.499Z,95420.53
2023-03-06T06:31:10.861Z,95414.91
2023-03-06T06:33:37.202Z,95411.75
2023-03-06T06:36:03.500Z,95416.44
2023-03-06T06:38:29.778Z,95419.50
2023-03-06T06:41:30.634Z,95428.47
2023-03-06T06:43:42.339Z,95429.06
2023-03-06T06:46:32.346Z,95435.94
2023-03-06T06:48:54.913Z,95421.88
2023-03-06T06:51:21.212Z,95426.81
2023-03-06T06:53:47.491Z,95428.75
2023-03-06T06:56:13.995Z,95429.53
2023-03-06T06:58:40.338Z,95431.97
2023-03-06T07:01:06.650Z,95423.53
2023-03-06T07:03:33.042Z,95435.72
2023-03-06T07:05:59.389Z,95428.56
2023-03-06T07:08:25.688Z,95426.16
2023-03-06T07:10:51.971Z,95430.16
2023-03-06T07:13:18.271Z,95439.97
2023-03-06T07:15:44.625Z,95430.00
2023-03-06T07:18:10.954Z,95431.59
2023-03-06T07:20:37.267Z,95421.13
2023-03-06T07:23:03.560Z,95420.59
2023-03-06T07:25:29.840Z,95428.44
2023-03-06T07:27:56.230Z,95433.06
2023-03-06T07:30:22.589Z,95432.13
2023-03-06T07:32:48.894Z,95427.00
2023-03-06T07:35:20.064Z,95438.78
2023-03-06T07:37:47.067Z,95435.25
2023-03-06T07:40:13.364Z,95436.72
2023-03-06T07:42:40.780Z,95437.38
2023-03-06T07:45:07.070Z,95435.78
2023-03-06T07:47:33.358Z,95439.84
2023-03-06T07:49:59.682Z,95434.78
2023-03-06T07:52:25.979Z,95438.97
2023-03-06T07:54:52.270Z,95440.94
2023-03-06T07:57:18.583Z,95445.28
2023-03-06T07:59:44.872Z,95434.03
2023-03-06T08:02:11.188Z,95431.28
2023-03-06T08:04:37.524Z,95442.78
2023-03-06T08:07:03.834Z,95438.56
2023-03-06T08:09:30.121Z,95447.09
2023-03-06T08:11:56.498Z,95451.28
2023-03-06T08:14:22.790Z,95451.56
2023-03-06T08:16:49.073Z,95458.59
2023-03-06T08:19:15.388Z,95457.31
2023-03-06T08:21:41.685Z,95456.94
2023-03-06T08:24:08.628Z,95446.19
2023-03-06T08:26:35.027Z,95448.38
2023-03-06T08:29:01.321Z,95445.56
2023-03-06T08:31:27.709Z,95449.19
2023-03-06T08:33:54.090Z,95448.31
2023-03-06T08:36:20.391Z,95445.50
2023-03-06T08:38:46.778Z,95441.63
2023-03-06T08:41:13.097Z,95445.22
2023-03-06T08:43:39.384Z,95444.25
2023-03-06T08:46:05.725Z,95453.91
2023-03-06T08:48:32.116Z,95451.06
2023-03-06T08:50:58.441Z,95451.00
2023-03-06T08:53:40.362Z,95445.31
2023-03-06T08:56:08.224Z,95451.47
2023-03-06T08:58:34.521Z,95448.84
2023-03-06T09:01:00.970Z,95448.50
2023-03-06T09:03:27.314Z,95445.97
2023-03-06T09:05:53.614Z,95445.88
2023-03-06T09:08:19.914Z,95440.00
2023-03-06T09:10:46.249Z,95440.44
2023-03-06T09:13:12.544Z,95444.53
2023-03-06T09:15:38.838Z,95437.91
2023-03-06T09:18:05.187Z,95442.47
2023-03-06T09:20:31.508Z,95442.19
2023-03-06T09:22:57.803Z,95443.63
2023-03-06T09:25:24.114Z,95451.25
2023-03-06T09:28:01.788Z,95456.41
2023-03-06T09:30:31.699Z,95448.69
2023-03-06T09:32:58.004Z,95443.81
2023-03-06T09:35:24.350Z,95438.44
2023-03-06T09:37:50.740Z,95437.78
2023-03-06T09:40:17.043Z,95433.22
2023-03-06T09:42:43.339Z,95440.47
2023-03-06T09:45:09.643Z,95431.97
2023-03-06T09:47:35.950Z,95428.78
2023-03-06T09:50:02.248Z,95426.69
2023-03-06T09:52:28.568Z,95435.72
2023-03-06T09:54:54.860Z,95436.19
2023-03-06T09:57:21.156Z,95437.41
2023-03-06T09:59:47.458Z,95436.97
2023-03-06T10:02:13.812Z,95437.72
2023-03-06T10:04:40.193Z,95421.31
2023-03-06T10:07:06.518Z,95428.13
2023-03-06T10:09:32.805Z,95431.31
2023-03-06T10:11:59.106Z,95424.63
2023-03-06T10:14:25.442Z,95422.41
2023-03-06T10:16:51.745Z,95415.09
2023-03-06T10:19:18.043Z,95412.69
2023-03-06T10:21:44.401Z,95413.47
2023-03-06T10:24:10.708Z,95404.44
2023-03-06T10:26:37.076Z,95406.53
2023-03-06T10:29:03.440Z,95400.75
2023-03-06T10:31:29.773Z,95411.47
2023-03-06T10:33:56.094Z,95403.88
2023-03-06T10:36:22.400Z,95404.38
2023-03-06T10:38:48.850Z,95406.81
2023-03-06T10:41:15.223Z,95401.59
2023-03-06T10:43:41.563Z,95401.09
2023-03-06T10:46:07.941Z,95401.66
2023-03-06T10:48:34.454Z,95396.22
2023-03-06T10:51:04.739Z,95393.06
2023-03-06T10:53:36.012Z,95394.00
2023-03-06T10:56:02.309Z,95395.47
2023-03-06T10:58:29.003Z,95397.63
2023-03-06T11:00:55.289Z,95393.47
2023-03-06T11:03:21.597Z,95396.97
2023-03-06T11:05:47.886Z,95387.66
2023-03-06T11:08:14.683Z,95394.69
2023-03-06T11:10:41.170Z,95384.72
2023-03-06T11:13:07.496Z,95387.63
2023-03-06T11:15:33.788Z,95385.72
2023-03-06T11:18:00.120Z,95380.31
2023-03-06T11:20:26.438Z,95381.75
2023-03-06T11:22:52.727Z,95377.88
2023-03-06T11:25:19.031Z,95373.97
2023-03-06T11:27:45.326Z,95377.19
2023-03-06T11:30:11.613Z,95380.84
2023-03-06T11:32:37.972Z,95373.47
2023-03-06T11:35:04.291Z,95367.84
2023-03-06T11:37:30.587Z,95366.09
2023-03-06T11:39:56.909Z,95363.63
2023-03-06T11:42:23.197Z,95356.97
2023-03-06T11:44:49.494Z,95356.09
2023-03-06T11:47:15.846Z,95354.78
2023-03-06T11:49:42.137Z,95342.78
2023-03-06T11:52:08.732Z,95342.53
2023-03-06T11:54:35.042Z,95352.00
2023-03-06T11:57:01.324Z,95341.88
2023-03-06T11:59:27.611Z,95336.63
2023-03-06T12:01:53.958Z,95339.25
2023-03-06T12:04:20.265Z,95339.88
2023-03-06T12:06:46.550Z,95333.09
2023-03-06T12:09:12.852Z,95323.41
2023-03-06T12:11:39.147Z,95313.72
2023-03-06T12:14:05.444Z,95299.41
2023-03-06T12:16:31.795Z,95304.25
2023-03-06T12:18:58.127Z,95296.16
2023-03-06T12:21:24.404Z,95294.63
2023-03-06T12:23:50.725Z,95297.00
2023-03-06T12:26:17.039Z,95291.81
2023-03-06T12:28:45.418Z,95294.56
2023-03-06T12:31:12.292Z,95289.19
2023-03-06T12:33:38.638Z,95279.56
2023-03-06T12:36:05.001Z,95279.69
2023-03-06T12:38:31.312Z,95282.38
2023-03-06T12:40:57.597Z,95273.19
2023-03-06T12:43:23.878Z,95255.88
2023-03-06T12:45:50.259Z,95253.47
2023-03-06T12:48:16.562Z,95265.69
2023-03-06T12:50:42.846Z,95256.59
2023-03-06T12:53:09.204Z,95258.00
2023-03-06T12:55:35.475Z,95247.63
2023-03-06T12:58:01.762Z,95252.44
2023-03-06T13:00:28.064Z,95251.69
2023-03-06T13:02:54.403Z,95235.97
2023-03-06T13:05:20.707Z,95239.13
2023-03-06T13:07:47.016Z,95245.16
2023-03-06T13:10:13.365Z,95240.94
2023-03-06T13:12:39.694Z,95247.00
2023-03-06T13:15:05.984Z,95243.44
2023-03-06T13:17:32.307Z,95247.34
2023-03-06T13:19:58.592Z,95247.31
2023-03-06T13:22:24.884Z,95247.63
2023-03-06T13:24:54.896Z,95241.28
2023-03-06T13:27:21.231Z,95239.75
2023-03-06T13:29:47.530Z,95239.16
2023-03-06T13:32:13.890Z,95254.72
2023-03-06T13:34:40.208Z,95250.25
2023-03-06T13:37:06.587Z,95241.91
2023-03-06T13:39:32.871Z,95249.84
2023-03-06T13:41:59.170Z,95246.53
2023-03-06T13:44:25.490Z,95246.88
2023-03-06T13:46:51.809Z,95237.41
2023-03-06T13:49:18.107Z,95236.34
2023-03-06T13:51:44.408Z,95231.50
2023-03-06T13:54:10.733Z,95230.09
2023-03-06T13:56:37.079Z,95219.28
2023-03-06T13:59:03.432Z,95230.09
2023-03-06T14:01:30.044Z,95228.25
2023-03-06T14:03:56.364Z,95223.28
2023-03-06T14:06:22.682Z,95220.22
2023-03-06T14:08:48.967Z,95223.56
2023-03-06T14:11:15.266Z,95218.94
2023-03-06T14:13:47.071Z,95222.91
2023-03-06T14:16:14.068Z,95227.72
2023-03-06T14:18:40.384Z,95229.91
2023-03-06T14:21:06.697Z,95218.88
2023-03-06T14:23:32.980Z,95217.47
2023-03-06T14:25:59.295Z,95212.94
2023-03-06T14:28:25.593Z,95216.50
2023-03-06T14:30:51.950Z,95205.06
2023-03-06T14:33:18.370Z,95201.31
2023-03-06T14:35:44.696Z,95200.44
2023-03-06T14:38:10.994Z,95197.22
2023-03-06T14:40:37.289Z,95203.44
2023-03-06T14:43:03.597Z,95199.81
2023-03-06T14:45:29.880Z,95189.75
2023-03-06T14:47:56.195Z,95189.75
2023-03-06T14:50:22.511Z,95191.47
2023-03-06T14:52:48.808Z,95188.94
2023-03-06T14:55:15.107Z,95190.38
2023-03-06T14:57:41.418Z,95184.06
2023-03-06T15:00:07.705Z,95175.88
2023-03-06T15:02:34.041Z,95169.13
2023-03-06T15:05:00.424Z,95174.84
2023-03-06T15:07:26.730Z,95187.88
2023-03-06T15:09:53.011Z,95197.38
2023-03-06T15:12:19.318Z,95187.53
2023-03-06T15:14:45.630Z,95188.28
2023-03-06T15:17:11.926Z,95192.91
2023-03-06T15:19:38.232Z,95193.13
2023-03-06T15:22:04.519Z,95184.50
2023-03-06T15:24:30.808Z,95200.28
2023-03-06T15:26:57.121Z,95189.81
2023-03-06T15:29:23.411Z,95180.59
2023-03-06T15:31:49.707Z,95184.84
2023-03-06T15:34:16.033Z,95182.94
2023-03-06T15:36:42.343Z,95173.09
2023-03-06T15:39:08.631Z,95176.03
2023-03-06T15:41:34.949Z,95178.56
2023-03-06T15:44:01.257Z,95178.44
2023-03-06T15:46:27.544Z,95174.91
2023-03-06T15:48:53.855Z,95166.91
2023-03-06T15:51:20.189Z,95173.97
2023-03-06T15:53:46.510Z,95175.91
2023-03-06T15:56:12.815Z,95162.88
2023-03-06T15:58:39.111Z,95181.59
2023-03-06T16:01:05.402Z,95174.38
2023-03-06T16:03:31.727Z,95189.69
2023-03-06T16:05:58.026Z,95196.91
2023-03-06T16:08:24.549Z,95198.19
2023-03-06T16:10:50.888Z,95196.66
2023-03-06T16:13:17.202Z,95202.88
2023-03-06T16:15:43.492Z,95204.16
2023-03-06T16:18:09.810Z,95193.03
2023-03-06T16:20:36.100Z,95191.63
2023-03-06T16:23:02.403Z,95196.72
2023-03-06T16:25:28.726Z,95206.97
2023-03-06T16:27:55.039Z,95208.44
2023-03-06T16:30:21.329Z,95211.66
2023-03-06T16:32:47.702Z,95205.88
2023-03-06T16:35:14.006Z,95200.78
2023-03-06T16:37:40.305Z,95202.00
2023-03-06T16:40:06.609Z,95205.69
2023-03-06T16:42:32.898Z,95204.72
2023-03-06T16:44:59.219Z,95185.66
2023-03-06T16:47:25.604Z,95196.00
2023-03-06T16:49:51.917Z,95190.38
2023-03-06T16:52:18.252Z,95177.22
2023-03-06T16:54:44.840Z,95190.34
2023-03-06T16:57:11.183Z,95203.47
2023-03-06T16:59:37.474Z,95213.88
2023-03-06T17:02:03.778Z,95208.22
2023-03-06T17:04:30.063Z,95211.69
2023-03-06T17:06:56.350Z,95207.69
2023-03-06T17:09:22.649Z,95198.22
2023-03-06T17:11:48.941Z,95203.56
2023-03-06T17:14:15.226Z,95229.28
2023-03-06T17:16:41.556Z,95216.47
2023-03-06T17:19:07.835Z,95235.59
2023-03-06T17:21:34.127Z,95224.28
2023-03-06T17:24:00.421Z,95234.13
2023-03-06T17:26:26.705Z,95227.38
2023-03-06T17:28:52.985Z,95260.47
2023-03-06T17:31:19.374Z,95244.13
2023-03-06T17:33:45.713Z,95236.41
2023-03-06T17:36:12.003Z,95247.34
2023-03-06T17:38:38.323Z,95245.03
2023-03-06T17:41:04.623Z,95255.44
2023-03-06T17:43:30.910Z,95250.28
2023-03-06T17:45:57.225Z,95276.00
2023-03-06T17:48:23.503Z,95273.97
2023-03-06T17:50:49.791Z,95268.31
2023-03-06T17:53:16.098Z,95263.22
2023-03-06T17:55:42.390Z,95273.88
2023-03-06T17:58:10.248Z,95266.75
2023-03-06T18:00:37.717Z,95292.72
2023-03-06T18:03:04.019Z,95305.50
2023-03-06T18:05:30.298Z,95275.41
2023-03-06T18:07:56.616Z,95278.75
2023-03-06T18:10:22.905Z,95291.88
2023-03-06T18:12:49.240Z,95288.09
2023-03-06T18:15:15.549Z,95298.00
2023-03-06T18:17:41.840Z,95294.72
2023-03-06T18:20:08.161Z,95292.44
2023-03-06T18:22:34.509Z,95297.97
2023-03-06T18:25:00.797Z,95307.88
2023-03-06T18:27:27.099Z,95303.31
2023-03-06T18:29:53.415Z,95309.94
2023-03-06T18:32:19.760Z,95298.63
2023-03-06T18:34:46.084Z,95304.94
2023-03-06T18:37:12.475Z,95303.38
2023-03-06T18:39:38.765Z,95297.72
2023-03-06T18:42:05.053Z,95305.41
2023-03-06T18:44:31.365Z,95296.22
2023-03-06T18:46:57.697Z,95301.38
2023-03-06T18:49:23.995Z,95304.28
2023-03-06T18:51:50.289Z,95293.50
2023-03-06T18:54:16.799Z,95293.22
2023-03-06T18:56:43.310Z,95309.88
2023-03-06T18:59:09.667Z,95315.03
2023-03-06T19:01:35.950Z,95304.00
2023-03-06T19:04:02.317Z,95308.25
2023-03-06T19:06:28.696Z,95313.22
2023-03-06T19:08:54.993Z,95322.94
2023-03-06T19:11:21.307Z,95320.84
2023-03-06T19:13:47.641Z,95326.63
2023-03-06T19:16:13.960Z,95327.63
2023-03-06T19:18:40.262Z,95323.22
2023-03-06T19:21:06.566Z,95334.84
2023-03-06T19:23:32.859Z,95344.47
2023-03-06T19:25:59.151Z,95343.28
2023-03-06T19:28:25.624Z,95350.09
2023-03-06T19:30:51.917Z,95337.94
2023-03-06T19:33:18.206Z,95357.09
2023-03-06T19:35:44.542Z,95361.13
2023-03-06T19:38:10.878Z,95357.06
2023-03-06T19:40:37.295Z,95365.31
2023-03-06T19:43:03.618Z,95362.00
2023-03-06T19:45:29.918Z,95378.72
2023-03-06T19:47:56.206Z,95379.53
2023-03-06T19:50:22.522Z,95376.06
2023-03-06T19:52:48.811Z,95379.22
2023-03-06T19:55:15.092Z,95386.28
2023-03-06T19:57:41.463Z,95380.94
2023-03-06T20:00:07.755Z,95380.31
2023-03-06T20:02:34.048Z,95384.63
2023-03-06T20:05:00.366Z,95391.41
2023-03-06T20:07:26.731Z,95393.19
2023-03-06T20:09:53.020Z,95400.81
2023-03-06T20:12:19.328Z,95390.41
2023-03-06T20:14:45.622Z,95395.19
2023-03-06T20:17:11.928Z,95387.09
2023-03-06T20:19:38.462Z,95399.00
2023-03-06T20:22:04.754Z,95401.63
2023-03-06T20:24:31.057Z,95412.66
2023-03-06T20:26:57.379Z,95409.19
2023-03-06T20:29:23.668Z,95407.81
2023-03-06T20:31:49.969Z,95401.59
2023-03-06T20:34:16.327Z,95416.25
2023-03-06T20:36:42.613Z,95422.00
2023-03-06T20:39:08.941Z,95426.88
2023-03-06T20:41:35.363Z,95439.53
2023-03-06T20:44:01.656Z,95417.06
2023-03-06T20:46:28.019Z,95424.22
2023-03-06T20:48:54.387Z,95421.47
2023-03-06T20:51:20.703Z,95428.75
2023-03-06T20:53:46.989Z,95420.88
2023-03-06T20:56:13.300Z,95424.75
2023-03-06T20:58:39.677Z,95431.03
2023-03-06T21:01:05.975Z,95414.16
2023-03-06T21:03:32.297Z,95430.41
2023-03-06T21:05:58.583Z,95431.72
2023-03-06T21:08:24.886Z,95439.69
2023-03-06T21:10:51.193Z,95432.91
2023-03-06T21:13:17.488Z,95428.72
2023-03-06T21:15:43.775Z,95440.47
2023-03-06T21:18:10.087Z,95439.66
2023-03-06T21:20:36.373Z,95419.06
2023-03-06T21:23:02.674Z,95426.66
2023-03-06T21:25:29.015Z,95425.59
2023-03-06T21:27:55.319Z,95426.19
2023-03-06T21:30:21.623Z,95417.00
2023-03-06T21:32:47.934Z,95424.56
2023-03-06T21:35:14.215Z,95419.16
2023-03-06T21:37:40.505Z,95413.63
2023-03-06T21:40:06.853Z,95400.28
2023-03-06T21:42:33.144Z,95407.47
2023-03-06T21:44:59.457Z,95398.28
2023-03-06T21:47:25.754Z,95391.53
2023-03-06T21:49:52.040Z,95394.91
2023-03-06T21:52:18.326Z,95390.91
2023-03-06T21:54:44.646Z,95388.13
2023-03-06T21:57:10.957Z,95376.28
2023-03-06T21:59:37.244Z,95374.78
2023-03-06T22:02:03.550Z,95375.69
2023-03-06T22:04:29.941Z,95369.44
2023-03-06T22:06:56.298Z,95374.97
2023-03-06T22:09:22.609Z,95377.38
2023-03-06T22:11:48.918Z,95366.19
2023-03-06T22:14:15.232Z,95374.22
2023-03-06T22:16:41.581Z,95366.03
2023-03-06T22:19:07.886Z,95357.69
2023-03-06T22:21:34.178Z,95358.72
2023-03-06T22:24:00.479Z,95354.31
2023-03-06T22:26:26.783Z,95373.69
2023-03-06T22:28:53.099Z,95371.47
2023-03-06T22:31:25.009Z,95377.94
2023-03-06T22:33:51.347Z,95380.22
2023-03-06T22:36:17.636Z,95379.03
2023-03-06T22:38:43.953Z,95365.84
2023-03-06T22:41:10.235Z,95371.00
2023-03-06T22:43:36.538Z,95366.25
2023-03-06T22:46:03.072Z,95374.53
2023-03-06T22:48:29.397Z,95363.50
2023-03-06T22:50:55.695Z,95366.22
2023-03-06T22:53:22.015Z,95373.72
2023-03-06T22:55:48.304Z,95379.13
2023-03-06T22:58:14.620Z,95374.75
2023-03-06T23:00:40.941Z,95367.47
2023-03-06T23:03:08.683Z,95379.63
2023-03-06T23:05:34.989Z,95379.28
2023-03-06T23:08:01.313Z,95377.44
2023-03-06T23:10:27.616Z,95390.25
2023-03-06T23:12:53.915Z,95388.66
2023-03-06T23:15:20.230Z,95379.47
2023-03-06T23:17:46.523Z,95383.03
2023-03-06T23:20:12.820Z,95376.06
2023-03-06T23:22:39.128Z,95377.06
2023-03-06T23:25:05.437Z,95362.28
2023-03-06T23:27:31.730Z,95364.38
2023-03-06T23:29:58.037Z,95377.66
2023-03-06T23:32:24.339Z,95372.09
2023-03-06T23:34:50.638Z,95381.47
2023-03-06T23:37:17.043Z,95376.53
2023-03-06T23:39:43.346Z,95367.94
2023-03-06T23:42:09.640Z,95357.94
2023-03-06T23:44:35.950Z,95363.50
2023-03-06T23:47:02.244Z,95366.75
2023-03-06T23:49:28.527Z,95363.34
2023-03-06T23:51:54.885Z,95369.69
2023-03-06T23:54:21.181Z,95375.09
2023-03-06T23:56:47.487Z,95361.59
2023-03-06T23:59:13.784Z,95355.69
